sensor_id;sensor_type;location;lat;lon;timestamp;P1;durP1;ratioP1;P2;durP2;ratioP2
30233;SDS011;17046;52.074;4.748;2023-02-28T00:01:05;6.07;;;2.20;;
30233;SDS011;17046;52.074;4.748;2023-02-28T00:03:30;5.50;;;2.17;;
30233;SDS011;17046;52.074;4.748;2023-02-28T00:06:00;6.20;;;2.07;;
30233;SDS011;17046;52.074;4.748;2023-02-28T00:08:29;6.10;;;1.90;;
30233;SDS011;17046;52.074;4.748;2023-02-28T00:10:55;5.73;;;1.93;;
30233;SDS011;17046;52.074;4.748;2023-02-28T00:13:21;10.80;;;2.47;;
30233;SDS011;17046;52.074;4.748;2023-02-28T00:15:46;4.90;;;2.00;;
30233;SDS011;17046;52.074;4.748;2023-02-28T00:18:12;7.23;;;1.63;;
30233;SDS011;17046;52.074;4.748;2023-02-28T00:20:38;6.10;;;2.07;;
30233;SDS011;17046;52.074;4.748;2023-02-28T00:23:04;4.70;;;2.00;;
30233;SDS011;17046;52.074;4.748;2023-02-28T00:25:29;4.63;;;1.80;;
30233;SDS011;17046;52.074;4.748;2023-02-28T00:27:55;4.47;;;1.70;;
30233;SDS011;17046;52.074;4.748;2023-02-28T00:30:22;5.57;;;1.80;;
30233;SDS011;17046;52.074;4.748;2023-02-28T00:32:49;4.50;;;1.70;;
30233;SDS011;17046;52.074;4.748;2023-02-28T00:35:15;5.80;;;2.03;;
30233;SDS011;17046;52.074;4.748;2023-02-28T00:37:41;4.43;;;1.90;;
30233;SDS011;17046;52.074;4.748;2023-02-28T00:40:07;3.53;;;2.07;;
30233;SDS011;17046;52.074;4.748;2023-02-28T00:42:34;2.53;;;1.43;;
30233;SDS011;17046;52.074;4.748;2023-02-28T00:45:00;4.00;;;1.40;;
30233;SDS011;17046;52.074;4.748;2023-02-28T00:47:26;6.30;;;1.90;;
30233;SDS011;17046;52.074;4.748;2023-02-28T00:49:52;5.20;;;2.03;;
30233;SDS011;17046;52.074;4.748;2023-02-28T00:52:18;6.10;;;1.60;;
30233;SDS011;17046;52.074;4.748;2023-02-28T00:54:43;4.57;;;1.90;;
30233;SDS011;17046;52.074;4.748;2023-02-28T00:57:09;3.97;;;2.10;;
30233;SDS011;17046;52.074;4.748;2023-02-28T00:59:35;3.37;;;1.50;;
30233;SDS011;17046;52.074;4.748;2023-02-28T01:02:00;4.37;;;1.77;;
30233;SDS011;17046;52.074;4.748;2023-02-28T01:04:26;4.53;;;1.83;;
30233;SDS011;17046;52.074;4.748;2023-02-28T01:06:52;3.87;;;2.07;;
30233;SDS011;17046;52.074;4.748;2023-02-28T01:09:17;4.37;;;2.00;;
30233;SDS011;17046;52.074;4.748;2023-02-28T01:11:43;6.40;;;2.00;;
30233;SDS011;17046;52.074;4.748;2023-02-28T01:14:11;4.97;;;1.90;;
30233;SDS011;17046;52.074;4.748;2023-02-28T01:16:38;8.23;;;2.07;;
30233;SDS011;17046;52.074;4.748;2023-02-28T01:19:03;3.43;;;1.97;;
30233;SDS011;17046;52.074;4.748;2023-02-28T01:21:29;4.43;;;1.97;;
30233;SDS011;17046;52.074;4.748;2023-02-28T01:23:56;4.87;;;2.00;;
30233;SDS011;17046;52.074;4.748;2023-02-28T01:26:22;7.07;;;2.00;;
30233;SDS011;17046;52.074;4.748;2023-02-28T01:28:49;5.30;;;1.70;;
30233;SDS011;17046;52.074;4.748;2023-02-28T01:31:17;4.17;;;1.80;;
30233;SDS011;17046;52.074;4.748;2023-02-28T01:33:43;4.90;;;1.60;;
30233;SDS011;17046;52.074;4.748;2023-02-28T01:36:13;5.20;;;2.13;;
30233;SDS011;17046;52.074;4.748;2023-02-28T01:38:41;8.33;;;2.27;;
30233;SDS011;17046;52.074;4.748;2023-02-28T01:41:08;3.30;;;1.77;;
30233;SDS011;17046;52.074;4.748;2023-02-28T01:46:08;3.63;;;1.80;;
30233;SDS011;17046;52.074;4.748;2023-02-28T01:48:35;4.20;;;1.80;;
30233;SDS011;17046;52.074;4.748;2023-02-28T01:51:10;3.73;;;1.90;;
30233;SDS011;17046;52.074;4.748;2023-02-28T01:53:47;5.47;;;1.90;;
30233;SDS011;17046;52.074;4.748;2023-02-28T01:56:18;4.80;;;1.73;;
30233;SDS011;17046;52.074;4.748;2023-02-28T01:58:48;4.07;;;2.00;;
30233;SDS011;17046;52.074;4.748;2023-02-28T02:01:18;4.43;;;2.00;;
30233;SDS011;17046;52.074;4.748;2023-02-28T02:03:49;2.80;;;1.60;;
30233;SDS011;17046;52.074;4.748;2023-02-28T02:06:24;4.53;;;1.97;;
30233;SDS011;17046;52.074;4.748;2023-02-28T02:08:53;6.80;;;2.07;;
30233;SDS011;17046;52.074;4.748;2023-02-28T02:11:20;7.63;;;2.07;;
30233;SDS011;17046;52.074;4.748;2023-02-28T02:16:37;3.23;;;1.77;;
30233;SDS011;17046;52.074;4.748;2023-02-28T02:25:15;5.83;;;2.20;;
30233;SDS011;17046;52.074;4.748;2023-02-28T02:27:57;5.97;;;2.10;;
30233;SDS011;17046;52.074;4.748;2023-02-28T02:36:27;5.13;;;2.13;;
30233;SDS011;17046;52.074;4.748;2023-02-28T02:39:06;6.03;;;2.70;;
30233;SDS011;17046;52.074;4.748;2023-02-28T02:44:24;4.73;;;2.30;;
30233;SDS011;17046;52.074;4.748;2023-02-28T02:46:53;11.50;;;2.50;;
30233;SDS011;17046;52.074;4.748;2023-02-28T02:49:29;5.83;;;2.50;;
30233;SDS011;17046;52.074;4.748;2023-02-28T02:51:57;4.27;;;2.17;;
30233;SDS011;17046;52.074;4.748;2023-02-28T02:54:28;6.60;;;2.60;;
30233;SDS011;17046;52.074;4.748;2023-02-28T02:56:59;8.60;;;2.80;;
30233;SDS011;17046;52.074;4.748;2023-02-28T02:59:30;6.57;;;2.77;;
30233;SDS011;17046;52.074;4.748;2023-02-28T03:01:57;6.13;;;2.30;;
30233;SDS011;17046;52.074;4.748;2023-02-28T03:04:28;4.73;;;2.40;;
30233;SDS011;17046;52.074;4.748;2023-02-28T03:06:58;6.57;;;2.40;;
30233;SDS011;17046;52.074;4.748;2023-02-28T03:09:24;5.10;;;2.40;;
30233;SDS011;17046;52.074;4.748;2023-02-28T03:11:50;6.63;;;2.67;;
30233;SDS011;17046;52.074;4.748;2023-02-28T03:14:25;5.10;;;2.30;;
30233;SDS011;17046;52.074;4.748;2023-02-28T03:17:03;7.90;;;2.40;;
30233;SDS011;17046;52.074;4.748;2023-02-28T03:19:55;6.40;;;2.53;;
30233;SDS011;17046;52.074;4.748;2023-02-28T03:22:52;4.70;;;2.40;;
30233;SDS011;17046;52.074;4.748;2023-02-28T03:31:34;5.20;;;2.77;;
30233;SDS011;17046;52.074;4.748;2023-02-28T03:34:08;5.53;;;2.77;;
30233;SDS011;17046;52.074;4.748;2023-02-28T03:36:42;5.17;;;3.00;;
30233;SDS011;17046;52.074;4.748;2023-02-28T03:39:16;4.10;;;2.80;;
30233;SDS011;17046;52.074;4.748;2023-02-28T03:41:53;6.07;;;2.83;;
30233;SDS011;17046;52.074;4.748;2023-02-28T03:44:26;9.00;;;3.50;;
30233;SDS011;17046;52.074;4.748;2023-02-28T03:47:02;6.53;;;3.20;;
30233;SDS011;17046;52.074;4.748;2023-02-28T03:50:16;6.40;;;2.93;;
30233;SDS011;17046;52.074;4.748;2023-02-28T03:52:27;8.57;;;3.73;;
30233;SDS011;17046;52.074;4.748;2023-02-28T03:54:58;6.00;;;3.20;;
30233;SDS011;17046;52.074;4.748;2023-02-28T03:57:40;6.70;;;2.80;;
30233;SDS011;17046;52.074;4.748;2023-02-28T04:00:14;8.53;;;3.40;;
30233;SDS011;17046;52.074;4.748;2023-02-28T04:02:45;6.47;;;3.40;;
30233;SDS011;17046;52.074;4.748;2023-02-28T04:05:11;7.27;;;3.37;;
30233;SDS011;17046;52.074;4.748;2023-02-28T04:07:36;6.07;;;3.37;;
30233;SDS011;17046;52.074;4.748;2023-02-28T04:10:03;6.83;;;3.57;;
30233;SDS011;17046;52.074;4.748;2023-02-28T04:12:29;7.37;;;3.80;;
30233;SDS011;17046;52.074;4.748;2023-02-28T04:14:54;9.17;;;3.43;;
30233;SDS011;17046;52.074;4.748;2023-02-28T04:17:20;8.87;;;3.77;;
30233;SDS011;17046;52.074;4.748;2023-02-28T04:19:45;8.77;;;3.77;;
30233;SDS011;17046;52.074;4.748;2023-02-28T04:22:11;8.67;;;3.67;;
30233;SDS011;17046;52.074;4.748;2023-02-28T04:24:37;9.10;;;4.20;;
30233;SDS011;17046;52.074;4.748;2023-02-28T04:27:06;9.37;;;4.70;;
30233;SDS011;17046;52.074;4.748;2023-02-28T04:29:33;10.67;;;4.80;;
30233;SDS011;17046;52.074;4.748;2023-02-28T04:31:59;8.33;;;4.00;;
30233;SDS011;17046;52.074;4.748;2023-02-28T04:34:26;8.93;;;3.83;;
30233;SDS011;17046;52.074;4.748;2023-02-28T04:36:53;8.33;;;4.00;;
30233;SDS011;17046;52.074;4.748;2023-02-28T04:39:20;5.57;;;3.30;;
30233;SDS011;17046;52.074;4.748;2023-02-28T04:41:47;9.17;;;4.40;;
30233;SDS011;17046;52.074;4.748;2023-02-28T04:44:13;9.10;;;4.23;;
30233;SDS011;17046;52.074;4.748;2023-02-28T04:46:39;7.73;;;4.23;;
30233;SDS011;17046;52.074;4.748;2023-02-28T04:49:04;7.17;;;4.43;;
30233;SDS011;17046;52.074;4.748;2023-02-28T04:51:30;9.37;;;4.40;;
30233;SDS011;17046;52.074;4.748;2023-02-28T04:53:56;5.43;;;4.17;;
30233;SDS011;17046;52.074;4.748;2023-02-28T04:56:22;8.97;;;4.50;;
30233;SDS011;17046;52.074;4.748;2023-02-28T04:58:47;10.00;;;4.10;;
30233;SDS011;17046;52.074;4.748;2023-02-28T05:01:16;9.47;;;4.43;;
30233;SDS011;17046;52.074;4.748;2023-02-28T05:03:42;8.03;;;3.90;;
30233;SDS011;17046;52.074;4.748;2023-02-28T05:06:09;8.07;;;4.83;;
30233;SDS011;17046;52.074;4.748;2023-02-28T05:08:36;7.60;;;4.70;;
30233;SDS011;17046;52.074;4.748;2023-02-28T05:11:02;8.27;;;4.67;;
30233;SDS011;17046;52.074;4.748;2023-02-28T05:13:28;7.93;;;5.40;;
30233;SDS011;17046;52.074;4.748;2023-02-28T05:15:54;7.80;;;4.77;;
30233;SDS011;17046;52.074;4.748;2023-02-28T05:18:20;10.70;;;4.90;;
30233;SDS011;17046;52.074;4.748;2023-02-28T05:20:46;11.30;;;5.17;;
30233;SDS011;17046;52.074;4.748;2023-02-28T05:23:12;7.77;;;5.20;;
30233;SDS011;17046;52.074;4.748;2023-02-28T05:25:38;9.27;;;5.60;;
30233;SDS011;17046;52.074;4.748;2023-02-28T05:28:05;8.97;;;5.33;;
30233;SDS011;17046;52.074;4.748;2023-02-28T05:30:31;10.10;;;4.80;;
30233;SDS011;17046;52.074;4.748;2023-02-28T05:32:57;10.03;;;5.30;;
30233;SDS011;17046;52.074;4.748;2023-02-28T05:35:23;10.37;;;5.37;;
30233;SDS011;17046;52.074;4.748;2023-02-28T05:37:49;12.87;;;5.33;;
30233;SDS011;17046;52.074;4.748;2023-02-28T05:40:15;12.33;;;5.40;;
30233;SDS011;17046;52.074;4.748;2023-02-28T05:42:41;12.57;;;5.57;;
30233;SDS011;17046;52.074;4.748;2023-02-28T05:45:07;11.07;;;5.83;;
30233;SDS011;17046;52.074;4.748;2023-02-28T05:47:33;12.27;;;6.07;;
30233;SDS011;17046;52.074;4.748;2023-02-28T05:50:00;9.17;;;6.10;;
30233;SDS011;17046;52.074;4.748;2023-02-28T05:52:26;11.97;;;6.10;;
30233;SDS011;17046;52.074;4.748;2023-02-28T05:54:52;12.37;;;5.57;;
30233;SDS011;17046;52.074;4.748;2023-02-28T05:57:18;9.87;;;5.30;;
30233;SDS011;17046;52.074;4.748;2023-02-28T05:59:43;10.47;;;5.80;;
30233;SDS011;17046;52.074;4.748;2023-02-28T06:02:13;10.50;;;4.97;;
30233;SDS011;17046;52.074;4.748;2023-02-28T06:04:40;9.13;;;5.10;;
30233;SDS011;17046;52.074;4.748;2023-02-28T06:07:07;8.50;;;4.70;;
30233;SDS011;17046;52.074;4.748;2023-02-28T06:09:33;6.63;;;4.67;;
30233;SDS011;17046;52.074;4.748;2023-02-28T06:11:59;9.20;;;5.17;;
30233;SDS011;17046;52.074;4.748;2023-02-28T06:14:28;7.43;;;4.77;;
30233;SDS011;17046;52.074;4.748;2023-02-28T06:16:56;12.67;;;5.00;;
30233;SDS011;17046;52.074;4.748;2023-02-28T06:19:21;8.20;;;4.67;;
30233;SDS011;17046;52.074;4.748;2023-02-28T06:21:49;7.67;;;4.43;;
30233;SDS011;17046;52.074;4.748;2023-02-28T06:24:17;10.50;;;4.30;;
30233;SDS011;17046;52.074;4.748;2023-02-28T06:26:43;8.73;;;4.50;;
30233;SDS011;17046;52.074;4.748;2023-02-28T06:29:09;9.50;;;4.17;;
30233;SDS011;17046;52.074;4.748;2023-02-28T06:31:34;6.20;;;4.20;;
30233;SDS011;17046;52.074;4.748;2023-02-28T06:34:00;9.13;;;3.70;;
30233;SDS011;17046;52.074;4.748;2023-02-28T06:36:25;8.10;;;4.43;;
30233;SDS011;17046;52.074;4.748;2023-02-28T06:38:51;7.33;;;4.37;;
30233;SDS011;17046;52.074;4.748;2023-02-28T06:41:20;5.97;;;3.90;;
30233;SDS011;17046;52.074;4.748;2023-02-28T06:43:47;6.80;;;3.90;;
30233;SDS011;17046;52.074;4.748;2023-02-28T06:46:13;7.43;;;3.50;;
30233;SDS011;17046;52.074;4.748;2023-02-28T06:48:39;7.03;;;4.00;;
30233;SDS011;17046;52.074;4.748;2023-02-28T06:51:06;4.97;;;3.60;;
30233;SDS011;17046;52.074;4.748;2023-02-28T06:53:34;7.40;;;3.07;;
30233;SDS011;17046;52.074;4.748;2023-02-28T06:56:03;8.07;;;3.37;;
30233;SDS011;17046;52.074;4.748;2023-02-28T06:58:31;6.93;;;3.57;;
30233;SDS011;17046;52.074;4.748;2023-02-28T07:00:57;6.10;;;3.40;;
30233;SDS011;17046;52.074;4.748;2023-02-28T07:03:22;6.13;;;3.10;;
30233;SDS011;17046;52.074;4.748;2023-02-28T07:05:48;7.67;;;3.43;;
30233;SDS011;17046;52.074;4.748;2023-02-28T07:08:13;6.97;;;3.60;;
30233;SDS011;17046;52.074;4.748;2023-02-28T07:10:39;9.17;;;3.97;;
30233;SDS011;17046;52.074;4.748;2023-02-28T07:13:06;6.60;;;3.60;;
30233;SDS011;17046;52.074;4.748;2023-02-28T07:15:33;7.23;;;3.87;;
30233;SDS011;17046;52.074;4.748;2023-02-28T07:18:00;6.03;;;3.90;;
30233;SDS011;17046;52.074;4.748;2023-02-28T07:20:26;6.67;;;3.70;;
30233;SDS011;17046;52.074;4.748;2023-02-28T07:22:51;5.87;;;3.77;;
30233;SDS011;17046;52.074;4.748;2023-02-28T07:25:30;5.60;;;3.77;;
30233;SDS011;17046;52.074;4.748;2023-02-28T07:27:56;5.60;;;4.17;;
30233;SDS011;17046;52.074;4.748;2023-02-28T07:30:22;5.87;;;3.97;;
30233;SDS011;17046;52.074;4.748;2023-02-28T07:32:47;5.93;;;3.97;;
30233;SDS011;17046;52.074;4.748;2023-02-28T07:35:13;6.03;;;4.37;;
30233;SDS011;17046;52.074;4.748;2023-02-28T07:37:40;8.30;;;5.00;;
30233;SDS011;17046;52.074;4.748;2023-02-28T07:40:10;7.17;;;4.73;;
30233;SDS011;17046;52.074;4.748;2023-02-28T07:42:39;8.13;;;5.43;;
30233;SDS011;17046;52.074;4.748;2023-02-28T07:45:06;8.07;;;5.67;;
30233;SDS011;17046;52.074;4.748;2023-02-28T07:47:33;8.00;;;5.20;;
30233;SDS011;17046;52.074;4.748;2023-02-28T07:49:59;7.40;;;5.33;;
30233;SDS011;17046;52.074;4.748;2023-02-28T07:52:25;6.90;;;4.77;;
30233;SDS011;17046;52.074;4.748;2023-02-28T07:54:50;6.60;;;4.63;;
30233;SDS011;17046;52.074;4.748;2023-02-28T07:57:16;8.73;;;5.40;;
30233;SDS011;17046;52.074;4.748;2023-02-28T07:59:42;6.73;;;4.93;;
30233;SDS011;17046;52.074;4.748;2023-02-28T08:02:14;9.40;;;4.97;;
30233;SDS011;17046;52.074;4.748;2023-02-28T08:04:41;7.43;;;4.87;;
30233;SDS011;17046;52.074;4.748;2023-02-28T08:07:07;7.27;;;4.47;;
30233;SDS011;17046;52.074;4.748;2023-02-28T08:09:34;7.60;;;4.83;;
30233;SDS011;17046;52.074;4.748;2023-02-28T08:12:00;9.57;;;5.07;;
30233;SDS011;17046;52.074;4.748;2023-02-28T08:14:25;9.70;;;5.20;;
30233;SDS011;17046;52.074;4.748;2023-02-28T08:16:51;7.33;;;5.43;;
30233;SDS011;17046;52.074;4.748;2023-02-28T08:19:16;7.17;;;5.23;;
30233;SDS011;17046;52.074;4.748;2023-02-28T08:21:42;9.77;;;6.10;;
30233;SDS011;17046;52.074;4.748;2023-02-28T08:24:08;10.30;;;6.13;;
30233;SDS011;17046;52.074;4.748;2023-02-28T08:26:33;10.57;;;6.40;;
30233;SDS011;17046;52.074;4.748;2023-02-28T08:28:59;9.20;;;5.93;;
30233;SDS011;17046;52.074;4.748;2023-02-28T08:31:25;8.47;;;5.60;;
30233;SDS011;17046;52.074;4.748;2023-02-28T08:33:50;10.10;;;6.13;;
30233;SDS011;17046;52.074;4.748;2023-02-28T08:36:18;10.17;;;6.50;;
30233;SDS011;17046;52.074;4.748;2023-02-28T08:38:44;11.93;;;5.90;;
30233;SDS011;17046;52.074;4.748;2023-02-28T08:41:11;11.30;;;6.67;;
30233;SDS011;17046;52.074;4.748;2023-02-28T08:43:37;11.03;;;6.20;;
30233;SDS011;17046;52.074;4.748;2023-02-28T08:46:04;8.87;;;5.60;;
30233;SDS011;17046;52.074;4.748;2023-02-28T08:48:31;10.23;;;5.73;;
30233;SDS011;17046;52.074;4.748;2023-02-28T08:51:00;7.70;;;5.90;;
30233;SDS011;17046;52.074;4.748;2023-02-28T08:53:27;7.00;;;5.17;;
30233;SDS011;17046;52.074;4.748;2023-02-28T08:55:57;9.07;;;4.90;;
30233;SDS011;17046;52.074;4.748;2023-02-28T08:58:22;12.50;;;6.50;;
30233;SDS011;17046;52.074;4.748;2023-02-28T09:00:48;9.90;;;5.47;;
30233;SDS011;17046;52.074;4.748;2023-02-28T09:03:13;7.63;;;4.43;;
30233;SDS011;17046;52.074;4.748;2023-02-28T09:05:39;9.73;;;4.70;;
30233;SDS011;17046;52.074;4.748;2023-02-28T09:08:04;7.63;;;5.07;;
30233;SDS011;17046;52.074;4.748;2023-02-28T09:10:30;6.53;;;4.80;;
30233;SDS011;17046;52.074;4.748;2023-02-28T09:12:55;7.43;;;4.83;;
30233;SDS011;17046;52.074;4.748;2023-02-28T09:15:21;9.83;;;4.50;;
30233;SDS011;17046;52.074;4.748;2023-02-28T09:17:47;7.07;;;4.13;;
30233;SDS011;17046;52.074;4.748;2023-02-28T09:20:12;8.03;;;5.60;;
30233;SDS011;17046;52.074;4.748;2023-02-28T09:22:38;10.77;;;5.67;;
30233;SDS011;17046;52.074;4.748;2023-02-28T09:25:04;7.77;;;5.50;;
30233;SDS011;17046;52.074;4.748;2023-02-28T09:27:29;10.17;;;5.20;;
30233;SDS011;17046;52.074;4.748;2023-02-28T09:29:55;7.47;;;5.17;;
30233;SDS011;17046;52.074;4.748;2023-02-28T09:32:20;8.03;;;5.03;;
30233;SDS011;17046;52.074;4.748;2023-02-28T09:34:46;8.23;;;5.13;;
30233;SDS011;17046;52.074;4.748;2023-02-28T09:37:12;8.30;;;5.40;;
30233;SDS011;17046;52.074;4.748;2023-02-28T09:39:37;7.87;;;5.00;;
30233;SDS011;17046;52.074;4.748;2023-02-28T09:42:03;8.33;;;5.13;;
30233;SDS011;17046;52.074;4.748;2023-02-28T09:44:40;6.93;;;4.67;;
30233;SDS011;17046;52.074;4.748;2023-02-28T09:47:14;10.17;;;5.60;;
30233;SDS011;17046;52.074;4.748;2023-02-28T09:50:00;10.30;;;5.27;;
30233;SDS011;17046;52.074;4.748;2023-02-28T09:52:34;8.50;;;5.27;;
30233;SDS011;17046;52.074;4.748;2023-02-28T09:55:08;9.33;;;5.30;;
30233;SDS011;17046;52.074;4.748;2023-02-28T09:57:47;10.27;;;5.47;;
30233;SDS011;17046;52.074;4.748;2023-02-28T10:00:19;9.67;;;5.80;;
30233;SDS011;17046;52.074;4.748;2023-02-28T10:02:54;8.57;;;5.43;;
30233;SDS011;17046;52.074;4.748;2023-02-28T10:08:25;9.17;;;5.47;;
30233;SDS011;17046;52.074;4.748;2023-02-28T10:10:57;7.50;;;5.03;;
30233;SDS011;17046;52.074;4.748;2023-02-28T10:13:29;7.50;;;4.53;;
30233;SDS011;17046;52.074;4.748;2023-02-28T10:16:01;5.10;;;3.80;;
30233;SDS011;17046;52.074;4.748;2023-02-28T10:22:10;6.47;;;4.17;;
30233;SDS011;17046;52.074;4.748;2023-02-28T10:24:21;6.30;;;3.63;;
30233;SDS011;17046;52.074;4.748;2023-02-28T10:27:01;5.27;;;3.50;;
30233;SDS011;17046;52.074;4.748;2023-02-28T10:29:59;4.70;;;3.10;;
30233;SDS011;17046;52.074;4.748;2023-02-28T10:32:30;4.33;;;2.83;;
30233;SDS011;17046;52.074;4.748;2023-02-28T10:37:50;5.07;;;2.77;;
30233;SDS011;17046;52.074;4.748;2023-02-28T10:42:58;3.63;;;2.20;;
30233;SDS011;17046;52.074;4.748;2023-02-28T10:45:26;5.13;;;2.73;;
30233;SDS011;17046;52.074;4.748;2023-02-28T10:48:00;5.10;;;2.13;;
30233;SDS011;17046;52.074;4.748;2023-02-28T10:50:50;3.83;;;2.17;;
30233;SDS011;17046;52.074;4.748;2023-02-28T11:01:23;4.50;;;2.37;;
30233;SDS011;17046;52.074;4.748;2023-02-28T11:03:59;3.73;;;1.90;;
30233;SDS011;17046;52.074;4.748;2023-02-28T11:06:32;4.47;;;2.30;;
30233;SDS011;17046;52.074;4.748;2023-02-28T11:09:06;4.30;;;1.87;;
30233;SDS011;17046;52.074;4.748;2023-02-28T11:11:52;4.00;;;2.17;;
30233;SDS011;17046;52.074;4.748;2023-02-28T11:14:24;3.63;;;2.17;;
30233;SDS011;17046;52.074;4.748;2023-02-28T11:16:53;3.03;;;1.83;;
30233;SDS011;17046;52.074;4.748;2023-02-28T11:19:23;2.47;;;1.60;;
30233;SDS011;17046;52.074;4.748;2023-02-28T11:22:02;4.63;;;2.40;;
30233;SDS011;17046;52.074;4.748;2023-02-28T11:24:42;2.57;;;1.70;;
30233;SDS011;17046;52.074;4.748;2023-02-28T11:28:26;4.23;;;1.70;;
30233;SDS011;17046;52.074;4.748;2023-02-28T11:30:34;3.30;;;2.27;;
30233;SDS011;17046;52.074;4.748;2023-02-28T11:33:00;1.70;;;1.60;;
30233;SDS011;17046;52.074;4.748;2023-02-28T11:35:28;3.97;;;1.80;;
30233;SDS011;17046;52.074;4.748;2023-02-28T11:38:05;2.77;;;2.50;;
30233;SDS011;17046;52.074;4.748;2023-02-28T11:43:23;3.37;;;2.10;;
30233;SDS011;17046;52.074;4.748;2023-02-28T11:46:20;3.30;;;2.07;;
30233;SDS011;17046;52.074;4.748;2023-02-28T11:49:11;3.37;;;2.00;;
30233;SDS011;17046;52.074;4.748;2023-02-28T11:51:48;5.00;;;2.13;;
30233;SDS011;17046;52.074;4.748;2023-02-28T11:54:29;2.33;;;1.60;;
30233;SDS011;17046;52.074;4.748;2023-02-28T11:57:20;3.83;;;1.97;;
30233;SDS011;17046;52.074;4.748;2023-02-28T12:05:44;2.60;;;1.83;;
30233;SDS011;17046;52.074;4.748;2023-02-28T12:11:38;2.63;;;2.07;;
30233;SDS011;17046;52.074;4.748;2023-02-28T12:20:30;3.83;;;1.83;;
30233;SDS011;17046;52.074;4.748;2023-02-28T12:22:57;2.00;;;1.50;;
30233;SDS011;17046;52.074;4.748;2023-02-28T12:28:11;1.90;;;1.77;;
30233;SDS011;17046;52.074;4.748;2023-02-28T12:30:41;3.43;;;2.00;;
30233;SDS011;17046;52.074;4.748;2023-02-28T12:33:28;3.80;;;1.93;;
30233;SDS011;17046;52.074;4.748;2023-02-28T12:35:59;2.67;;;1.80;;
30233;SDS011;17046;52.074;4.748;2023-02-28T12:41:05;2.33;;;2.00;;
30233;SDS011;17046;52.074;4.748;2023-02-28T12:43:36;3.17;;;1.87;;
30233;SDS011;17046;52.074;4.748;2023-02-28T12:48:41;3.83;;;2.00;;
30233;SDS011;17046;52.074;4.748;2023-02-28T12:51:17;4.50;;;1.80;;
30233;SDS011;17046;52.074;4.748;2023-02-28T12:53:58;3.13;;;1.90;;
30233;SDS011;17046;52.074;4.748;2023-02-28T12:56:42;2.80;;;1.80;;
30233;SDS011;17046;52.074;4.748;2023-02-28T13:10:14;3.93;;;1.70;;
30233;SDS011;17046;52.074;4.748;2023-02-28T13:12:48;2.97;;;2.07;;
30233;SDS011;17046;52.074;4.748;2023-02-28T13:15:25;2.87;;;2.03;;
30233;SDS011;17046;52.074;4.748;2023-02-28T13:17:54;2.57;;;1.67;;
30233;SDS011;17046;52.074;4.748;2023-02-28T13:20:33;3.73;;;2.10;;
30233;SDS011;17046;52.074;4.748;2023-02-28T13:23:01;3.23;;;2.00;;
30233;SDS011;17046;52.074;4.748;2023-02-28T13:27:59;2.67;;;2.13;;
30233;SDS011;17046;52.074;4.748;2023-02-28T13:38:43;2.43;;;2.10;;
30233;SDS011;17046;52.074;4.748;2023-02-28T13:46:26;2.63;;;1.70;;
30233;SDS011;17046;52.074;4.748;2023-02-28T13:48:52;2.43;;;1.50;;
30233;SDS011;17046;52.074;4.748;2023-02-28T13:54:15;4.30;;;1.60;;
30233;SDS011;17046;52.074;4.748;2023-02-28T14:08:54;2.20;;;1.60;;
30233;SDS011;17046;52.074;4.748;2023-02-28T14:11:25;3.30;;;1.70;;
30233;SDS011;17046;52.074;4.748;2023-02-28T14:13:53;2.87;;;1.90;;
30233;SDS011;17046;52.074;4.748;2023-02-28T14:16:20;2.13;;;1.50;;
30233;SDS011;17046;52.074;4.748;2023-02-28T14:18:56;4.20;;;1.83;;
30233;SDS011;17046;52.074;4.748;2023-02-28T14:21:29;2.27;;;1.67;;
30233;SDS011;17046;52.074;4.748;2023-02-28T14:37:51;4.07;;;1.60;;
30233;SDS011;17046;52.074;4.748;2023-02-28T14:40:30;3.50;;;1.43;;
30233;SDS011;17046;52.074;4.748;2023-02-28T14:43:00;2.43;;;1.80;;
30233;SDS011;17046;52.074;4.748;2023-02-28T14:45:29;3.00;;;1.57;;
30233;SDS011;17046;52.074;4.748;2023-02-28T14:47:56;3.50;;;2.00;;
30233;SDS011;17046;52.074;4.748;2023-02-28T14:50:26;2.80;;;1.93;;
30233;SDS011;17046;52.074;4.748;2023-02-28T14:52:55;2.47;;;1.90;;
30233;SDS011;17046;52.074;4.748;2023-02-28T14:55:29;2.80;;;1.80;;
30233;SDS011;17046;52.074;4.748;2023-02-28T14:57:57;2.47;;;1.93;;
30233;SDS011;17046;52.074;4.748;2023-02-28T15:00:25;3.10;;;1.67;;
30233;SDS011;17046;52.074;4.748;2023-02-28T15:02:54;2.33;;;1.67;;
30233;SDS011;17046;52.074;4.748;2023-02-28T15:05:31;2.50;;;1.80;;
30233;SDS011;17046;52.074;4.748;2023-02-28T15:10:38;3.30;;;1.87;;
30233;SDS011;17046;52.074;4.748;2023-02-28T15:13:09;5.03;;;2.90;;
30233;SDS011;17046;52.074;4.748;2023-02-28T15:15:43;4.00;;;2.13;;
30233;SDS011;17046;52.074;4.748;2023-02-28T15:18:16;3.90;;;2.10;;
30233;SDS011;17046;52.074;4.748;2023-02-28T15:20:49;5.30;;;2.70;;
30233;SDS011;17046;52.074;4.748;2023-02-28T15:23:16;4.50;;;2.43;;
30233;SDS011;17046;52.074;4.748;2023-02-28T15:25:43;3.30;;;2.37;;
30233;SDS011;17046;52.074;4.748;2023-02-28T15:28:11;4.17;;;2.20;;
30233;SDS011;17046;52.074;4.748;2023-02-28T15:30:51;4.40;;;2.53;;
30233;SDS011;17046;52.074;4.748;2023-02-28T15:33:20;3.40;;;2.20;;
30233;SDS011;17046;52.074;4.748;2023-02-28T15:35:50;4.73;;;2.63;;
30233;SDS011;17046;52.074;4.748;2023-02-28T15:40:46;4.97;;;3.17;;
30233;SDS011;17046;52.074;4.748;2023-02-28T15:43:23;3.80;;;2.40;;
30233;SDS011;17046;52.074;4.748;2023-02-28T15:48:26;4.10;;;2.70;;
30233;SDS011;17046;52.074;4.748;2023-02-28T15:50:56;3.70;;;2.60;;
30233;SDS011;17046;52.074;4.748;2023-02-28T15:53:28;4.83;;;2.70;;
30233;SDS011;17046;52.074;4.748;2023-02-28T15:56:04;7.90;;;3.73;;
30233;SDS011;17046;52.074;4.748;2023-02-28T15:58:34;5.87;;;3.43;;
30233;SDS011;17046;52.074;4.748;2023-02-28T16:03:50;8.43;;;2.73;;
30233;SDS011;17046;52.074;4.748;2023-02-28T16:08:58;5.07;;;2.57;;
30233;SDS011;17046;52.074;4.748;2023-02-28T16:11:24;5.77;;;2.87;;
30233;SDS011;17046;52.074;4.748;2023-02-28T16:13:50;4.90;;;2.67;;
30233;SDS011;17046;52.074;4.748;2023-02-28T16:16:17;3.73;;;2.90;;
30233;SDS011;17046;52.074;4.748;2023-02-28T16:18:45;4.67;;;3.00;;
30233;SDS011;17046;52.074;4.748;2023-02-28T16:21:11;5.50;;;3.20;;
30233;SDS011;17046;52.074;4.748;2023-02-28T16:23:37;4.90;;;3.20;;
30233;SDS011;17046;52.074;4.748;2023-02-28T16:26:03;4.87;;;3.20;;
30233;SDS011;17046;52.074;4.748;2023-02-28T16:28:36;5.13;;;3.23;;
30233;SDS011;17046;52.074;4.748;2023-02-28T16:31:05;16.13;;;8.13;;
30233;SDS011;17046;52.074;4.748;2023-02-28T16:33:32;4.70;;;3.30;;
30233;SDS011;17046;52.074;4.748;2023-02-28T16:35:59;6.70;;;3.83;;
30233;SDS011;17046;52.074;4.748;2023-02-28T16:38:25;7.27;;;5.27;;
30233;SDS011;17046;52.074;4.748;2023-02-28T16:40:51;9.80;;;5.53;;
30233;SDS011;17046;52.074;4.748;2023-02-28T16:43:22;6.83;;;3.83;;
30233;SDS011;17046;52.074;4.748;2023-02-28T16:45:54;5.70;;;3.83;;
30233;SDS011;17046;52.074;4.748;2023-02-28T16:48:21;4.70;;;3.57;;
30233;SDS011;17046;52.074;4.748;2023-02-28T16:50:47;4.23;;;3.20;;
30233;SDS011;17046;52.074;4.748;2023-02-28T16:53:13;4.97;;;4.00;;
30233;SDS011;17046;52.074;4.748;2023-02-28T16:55:38;5.97;;;4.17;;
30233;SDS011;17046;52.074;4.748;2023-02-28T16:58:04;7.33;;;4.93;;
30233;SDS011;17046;52.074;4.748;2023-02-28T17:00:30;5.87;;;4.10;;
30233;SDS011;17046;52.074;4.748;2023-02-28T17:02:57;6.80;;;3.57;;
30233;SDS011;17046;52.074;4.748;2023-02-28T17:05:24;9.03;;;4.70;;
30233;SDS011;17046;52.074;4.748;2023-02-28T17:07:51;4.23;;;3.53;;
30233;SDS011;17046;52.074;4.748;2023-02-28T17:10:18;7.07;;;4.97;;
30233;SDS011;17046;52.074;4.748;2023-02-28T17:12:47;5.63;;;3.90;;
30233;SDS011;17046;52.074;4.748;2023-02-28T17:15:14;5.10;;;3.57;;
30233;SDS011;17046;52.074;4.748;2023-02-28T17:17:41;7.37;;;3.90;;
30233;SDS011;17046;52.074;4.748;2023-02-28T17:20:11;5.20;;;3.40;;